createdAt,value
2023-05-21T00:01:08.779Z,15.20
2023-05-21T00:03:36.564Z,15.20
2023-05-21T00:06:04.003Z,15.10
2023-05-21T00:08:31.287Z,15.10
2023-05-21T00:10:58.249Z,15.10
2023-05-21T00:13:25.164Z,15.10
2023-05-21T00:15:52.219Z,15.10
2023-05-21T00:18:19.317Z,15.10
2023-05-21T00:20:46.137Z,15.10
2023-05-21T00:23:13.250Z,15.00
2023-05-21T00:25:40.098Z,15.00
2023-05-21T00:28:07.142Z,14.90
2023-05-21T00:30:33.996Z,14.90
2023-05-21T00:33:03.125Z,14.90
2023-05-21T00:35:30.245Z,14.80
2023-05-21T00:37:57.444Z,14.80
2023-05-21T00:40:24.440Z,14.80
2023-05-21T00:42:51.348Z,14.70
2023-05-21T00:45:18.336Z,14.70
2023-05-21T00:47:45.980Z,14.70
2023-05-21T00:50:15.237Z,14.70
2023-05-21T00:52:45.717Z,14.70
2023-05-21T00:55:12.945Z,14.60
2023-05-21T00:57:40.265Z,14.70
2023-05-21T01:00:09.009Z,14.60
2023-05-21T01:02:37.488Z,14.70
2023-05-21T01:05:08.807Z,14.60
2023-05-21T01:07:38.921Z,14.60
2023-05-21T01:10:07.905Z,14.50
2023-05-21T01:12:37.692Z,14.50
2023-05-21T01:15:05.821Z,14.50
2023-05-21T01:17:34.439Z,14.50
2023-05-21T01:20:02.084Z,14.50
2023-05-21T01:22:33.152Z,14.40
2023-05-21T01:25:02.869Z,14.40
2023-05-21T01:27:29.977Z,14.30
2023-05-21T01:29:57.384Z,14.30
2023-05-21T01:32:41.401Z,14.20
2023-05-21T01:35:13.001Z,14.20
2023-05-21T01:38:15.191Z,14.20
2023-05-21T01:40:49.165Z,14.20
2023-05-21T01:43:16.943Z,14.10
2023-05-21T01:45:45.218Z,14.10
2023-05-21T01:48:13.108Z,14.00
2023-05-21T01:50:41.740Z,14.00
2023-05-21T01:53:08.622Z,14.00
2023-05-21T01:55:36.085Z,14.00
2023-05-21T01:58:03.339Z,14.10
2023-05-21T02:00:32.425Z,14.10
2023-05-21T02:02:59.862Z,14.10
2023-05-21T02:05:26.914Z,14.00
2023-05-21T02:07:55.005Z,14.10
2023-05-21T02:10:21.973Z,14.10
2023-05-21T02:12:49.110Z,14.00
2023-05-21T02:15:18.151Z,14.00
2023-05-21T02:17:46.418Z,13.90
2023-05-21T02:20:14.626Z,13.90
2023-05-21T02:22:43.578Z,13.90
2023-05-21T02:25:11.982Z,13.90
2023-05-21T02:27:39.921Z,13.90
2023-05-21T02:30:09.248Z,13.80
2023-05-21T02:32:36.552Z,13.80
2023-05-21T02:35:04.858Z,13.80
2023-05-21T02:37:35.864Z,13.80
2023-05-21T02:40:06.074Z,13.70
2023-05-21T02:42:33.877Z,13.70
2023-05-21T02:45:00.868Z,13.60
2023-05-21T02:47:27.872Z,13.60
2023-05-21T02:49:55.001Z,13.60
2023-05-21T02:52:24.591Z,13.50
2023-05-21T02:54:52.343Z,13.40
2023-05-21T02:57:19.371Z,13.40
2023-05-21T02:59:46.432Z,13.40
2023-05-21T03:02:13.330Z,13.40
2023-05-21T03:04:46.144Z,13.40
2023-05-21T03:07:14.696Z,13.40
2023-05-21T03:09:42.570Z,13.40
2023-05-21T03:12:10.435Z,13.30
2023-05-21T03:14:37.699Z,13.30
2023-05-21T03:17:06.350Z,13.20
2023-05-21T03:19:37.442Z,13.20
2023-05-21T03:22:04.871Z,13.20
2023-05-21T03:24:33.170Z,13.10
2023-05-21T03:27:01.560Z,13.20
2023-05-21T03:29:28.995Z,13.20
2023-05-21T03:31:56.361Z,13.20
2023-05-21T03:34:24.063Z,13.20
2023-05-21T03:36:51.207Z,13.20
2023-05-21T03:39:18.440Z,13.20
2023-05-21T03:41:45.481Z,13.20
2023-05-21T03:44:12.334Z,13.20
2023-05-21T03:46:39.281Z,13.20
2023-05-21T03:49:06.271Z,13.20
2023-05-21T03:51:33.277Z,13.10
2023-05-21T03:54:01.492Z,13.10
2023-05-21T03:56:28.474Z,13.10
2023-05-21T03:58:55.445Z,13.10
2023-05-21T04:01:22.433Z,13.10
2023-05-21T04:03:49.422Z,13.00
2023-05-21T04:06:17.079Z,13.10
2023-05-21T04:08:44.662Z,13.10
2023-05-21T04:11:11.515Z,13.00
2023-05-21T04:13:38.919Z,13.10
2023-05-21T04:16:09.185Z,13.10
2023-05-21T04:18:36.156Z,13.10
2023-05-21T04:21:03.131Z,13.20
2023-05-21T04:23:29.978Z,13.20
2023-05-21T04:25:56.898Z,13.20
2023-05-21T04:28:24.256Z,13.20
2023-05-21T04:30:51.356Z,13.30
2023-05-21T04:33:20.364Z,13.30
2023-05-21T04:35:50.232Z,13.30
2023-05-21T04:38:20.930Z,13.40
2023-05-21T04:40:53.351Z,13.40
2023-05-21T04:43:25.777Z,13.40
2023-05-21T04:45:54.981Z,13.50
2023-05-21T04:48:27.238Z,13.60
2023-05-21T04:50:54.687Z,13.60
2023-05-21T04:53:23.503Z,13.70
2023-05-21T04:55:50.622Z,13.70
2023-05-21T04:58:20.645Z,13.80
2023-05-21T05:00:51.026Z,13.80
2023-05-21T05:03:18.675Z,13.90
2023-05-21T05:05:46.140Z,14.00
2023-05-21T05:08:15.546Z,14.10
2023-05-21T05:10:43.082Z,14.10
2023-05-21T05:13:10.095Z,14.30
2023-05-21T05:15:37.155Z,14.40
2023-05-21T05:18:04.543Z,14.40
2023-05-21T05:20:31.423Z,14.40
2023-05-21T05:22:58.271Z,14.50
2023-05-21T05:25:25.240Z,14.50
2023-05-21T05:27:52.075Z,14.60
2023-05-21T05:30:18.974Z,14.70
2023-05-21T05:32:46.716Z,14.80
2023-05-21T05:35:13.621Z,15.00
2023-05-21T05:37:40.460Z,15.00
2023-05-21T05:40:08.171Z,15.00
2023-05-21T05:42:35.057Z,15.10
2023-05-21T05:45:01.919Z,15.20
2023-05-21T05:47:28.762Z,15.40
2023-05-21T05:49:55.721Z,15.40
2023-05-21T05:52:22.578Z,15.40
2023-05-21T05:54:49.430Z,15.50
2023-05-21T05:57:16.469Z,15.50
2023-05-21T05:59:43.340Z,15.60
2023-05-21T06:02:10.474Z,15.70
2023-05-21T06:04:37.337Z,15.70
2023-05-21T06:07:04.318Z,15.70
2023-05-21T06:09:31.364Z,15.80
2023-05-21T06:11:58.217Z,15.90
2023-05-21T06:14:25.054Z,16.10
2023-05-21T06:16:51.909Z,16.20
2023-05-21T06:19:19.052Z,16.30
2023-05-21T06:21:45.941Z,16.50
2023-05-21T06:24:12.850Z,16.40
2023-05-21T06:26:39.734Z,16.60
2023-05-21T06:29:07.021Z,16.80
2023-05-21T06:31:34.169Z,16.80
2023-05-21T06:34:01.766Z,17.10
2023-05-21T06:36:30.229Z,17.10
2023-05-21T06:38:57.486Z,17.10
2023-05-21T06:41:24.650Z,17.40
2023-05-21T06:43:51.696Z,17.40
2023-05-21T06:46:19.206Z,17.60
2023-05-21T06:48:46.533Z,17.60
2023-05-21T06:51:13.689Z,17.80
2023-05-21T06:53:40.647Z,17.90
2023-05-21T06:56:07.928Z,18.10
2023-05-21T06:58:34.765Z,18.20
2023-05-21T07:01:02.027Z,18.40
2023-05-21T07:03:29.129Z,18.40
2023-05-21T07:05:58.095Z,18.60
2023-05-21T07:08:25.085Z,18.80
2023-05-21T07:10:52.045Z,18.90
2023-05-21T07:13:19.013Z,19.10
2023-05-21T07:15:46.025Z,19.20
2023-05-21T07:18:13.423Z,19.40
2023-05-21T07:20:40.418Z,19.40
2023-05-21T07:23:07.264Z,19.50
2023-05-21T07:25:34.518Z,19.40
2023-05-21T07:28:01.717Z,19.60
2023-05-21T07:30:28.668Z,19.60
2023-05-21T07:32:55.608Z,19.70
2023-05-21T07:35:22.863Z,20.00
2023-05-21T07:37:49.872Z,20.10
2023-05-21T07:40:16.952Z,20.30
2023-05-21T07:42:43.784Z,20.40
2023-05-21T07:45:10.932Z,20.60
2023-05-21T07:47:37.925Z,20.60
2023-05-21T07:50:05.716Z,20.60
2023-05-21T07:52:32.838Z,20.60
2023-05-21T07:55:01.150Z,20.60
2023-05-21T07:57:28.262Z,20.70
2023-05-21T07:59:55.221Z,20.90
2023-05-21T08:02:22.324Z,20.80
2023-05-21T08:04:49.254Z,20.70
2023-05-21T08:07:19.894Z,20.90
2023-05-21T08:09:47.225Z,21.00
2023-05-21T08:12:16.081Z,21.20
2023-05-21T08:14:43.196Z,21.00
2023-05-21T08:17:13.394Z,20.90
2023-05-21T08:19:40.466Z,20.80
2023-05-21T08:22:07.497Z,20.60
2023-05-21T08:24:34.682Z,20.70
2023-05-21T08:27:01.629Z,20.70
2023-05-21T08:29:28.856Z,20.80
2023-05-21T08:31:56.604Z,20.60
2023-05-21T08:34:23.626Z,20.70
2023-05-21T08:36:50.737Z,20.80
2023-05-21T08:39:17.731Z,20.70
2023-05-21T08:41:49.880Z,20.60
2023-05-21T08:44:21.524Z,20.70
2023-05-21T08:46:51.688Z,20.90
2023-05-21T08:49:22.800Z,20.90
2023-05-21T08:51:51.588Z,21.00
2023-05-21T08:54:18.704Z,21.00
2023-05-21T08:56:49.374Z,21.10
2023-05-21T08:59:18.379Z,21.20
2023-05-21T09:01:47.154Z,21.30
2023-05-21T09:04:21.271Z,21.40
2023-05-21T09:06:49.083Z,21.60
2023-05-21T09:09:28.249Z,21.90
2023-05-21T09:11:55.434Z,22.20
2023-05-21T09:14:24.361Z,22.50
2023-05-21T09:16:51.523Z,22.40
2023-05-21T09:19:21.905Z,22.50
2023-05-21T09:21:51.903Z,22.70
2023-05-21T09:24:22.745Z,22.90
2023-05-21T09:26:49.770Z,23.00
2023-05-21T09:29:16.638Z,23.50
2023-05-21T09:31:47.777Z,23.60
2023-05-21T09:34:15.013Z,23.60
2023-05-21T09:36:41.977Z,23.80
2023-05-21T09:39:08.850Z,24.30
2023-05-21T09:41:37.019Z,24.40
2023-05-21T09:44:04.589Z,24.30
2023-05-21T09:46:41.811Z,24.90
2023-05-21T09:49:26.554Z,25.50
2023-05-21T09:51:59.951Z,25.40
2023-05-21T09:54:33.359Z,25.40
2023-05-21T09:57:03.423Z,25.50
2023-05-21T09:59:39.982Z,25.60
2023-05-21T10:02:21.794Z,25.80
2023-05-21T10:04:51.245Z,25.40
2023-05-21T10:07:25.995Z,25.30
2023-05-21T10:09:57.933Z,25.30
2023-05-21T10:12:26.062Z,25.60
2023-05-21T10:14:59.774Z,25.80
2023-05-21T10:17:28.269Z,26.40
2023-05-21T10:19:56.626Z,28.00
2023-05-21T10:22:25.395Z,28.90
2023-05-21T10:24:53.076Z,29.70
2023-05-21T10:27:20.117Z,30.60
2023-05-21T10:29:47.966Z,29.80
2023-05-21T10:32:16.870Z,29.40
2023-05-21T10:34:44.307Z,29.10
2023-05-21T10:37:13.510Z,28.90
2023-05-21T10:39:40.922Z,28.70
2023-05-21T10:42:12.659Z,28.10
2023-05-21T10:44:57.514Z,28.30
2023-05-21T10:47:39.082Z,28.90
2023-05-21T10:50:39.573Z,28.80
2023-05-21T10:53:25.187Z,28.70
2023-05-21T10:56:09.925Z,28.40
2023-05-21T10:58:55.161Z,28.70
2023-05-21T11:01:22.772Z,28.70
2023-05-21T11:03:50.333Z,28.30
2023-05-21T11:06:27.130Z,28.30
2023-05-21T11:08:55.460Z,28.60
2023-05-21T11:11:46.191Z,28.50
2023-05-21T11:14:39.928Z,28.30
2023-05-21T11:17:11.706Z,27.70
2023-05-21T11:19:41.355Z,27.40
2023-05-21T11:22:10.685Z,27.50
2023-05-21T11:24:39.724Z,27.40
2023-05-21T11:27:07.164Z,27.50
2023-05-21T11:29:45.035Z,27.30
2023-05-21T11:32:13.544Z,27.30
2023-05-21T11:34:48.639Z,27.40
2023-05-21T11:37:18.426Z,27.50
2023-05-21T11:39:45.773Z,27.90
2023-05-21T11:42:13.133Z,27.90
2023-05-21T11:44:44.729Z,28.00
2023-05-21T11:47:16.275Z,28.00
2023-05-21T11:49:43.936Z,28.30
2023-05-21T11:52:11.741Z,28.50
2023-05-21T11:54:46.547Z,28.40
2023-05-21T11:57:17.441Z,28.20
2023-05-21T11:59:47.129Z,28.60
2023-05-21T12:02:22.311Z,29.00
2023-05-21T12:04:50.658Z,30.60
2023-05-21T12:07:19.323Z,30.70
2023-05-21T12:09:51.503Z,30.90
2023-05-21T12:12:21.567Z,31.60
2023-05-21T12:14:50.653Z,31.10
2023-05-21T12:17:19.520Z,31.50
2023-05-21T12:19:47.147Z,31.80
2023-05-21T12:22:16.593Z,32.00
2023-05-21T12:24:44.290Z,31.40
2023-05-21T12:27:13.568Z,31.40
2023-05-21T12:29:42.643Z,32.00
2023-05-21T12:32:14.421Z,31.30
2023-05-21T12:34:48.871Z,31.20
2023-05-21T12:37:23.844Z,31.80
2023-05-21T12:39:55.058Z,32.10
2023-05-21T12:42:30.669Z,32.60
2023-05-21T12:44:58.367Z,32.80
2023-05-21T12:47:26.839Z,33.00
2023-05-21T12:50:04.079Z,32.90
2023-05-21T12:52:31.245Z,32.80
2023-05-21T12:54:58.660Z,32.90
2023-05-21T12:57:36.459Z,32.40
2023-05-21T13:00:06.817Z,32.00
2023-05-21T13:02:43.414Z,31.80
2023-05-21T13:05:20.167Z,31.50
2023-05-21T13:07:48.234Z,31.40
2023-05-21T13:10:16.786Z,31.20
2023-05-21T13:12:44.945Z,30.50
2023-05-21T13:15:12.173Z,30.40
2023-05-21T13:17:39.255Z,30.50
2023-05-21T13:20:21.696Z,30.80
2023-05-21T13:22:51.120Z,30.50
2023-05-21T13:25:24.510Z,29.90
2023-05-21T13:27:53.174Z,29.20
2023-05-21T13:30:21.446Z,28.80
2023-05-21T13:32:49.022Z,28.80
2023-05-21T13:35:17.375Z,29.00
2023-05-21T13:37:45.155Z,29.30
2023-05-21T13:40:16.883Z,29.20
2023-05-21T13:42:47.732Z,29.00
2023-05-21T13:45:16.738Z,29.10
2023-05-21T13:47:44.890Z,29.30
2023-05-21T13:50:12.347Z,29.40
2023-05-21T13:52:39.495Z,29.40
2023-05-21T13:55:06.857Z,29.90
2023-05-21T13:57:33.816Z,29.70
2023-05-21T14:00:01.293Z,29.30
2023-05-21T14:02:28.569Z,29.20
2023-05-21T14:04:55.610Z,28.90
2023-05-21T14:07:22.626Z,28.80
2023-05-21T14:09:49.971Z,28.30
2023-05-21T14:12:17.201Z,28.10
2023-05-21T14:14:44.328Z,28.20
2023-05-21T14:17:11.293Z,28.20
2023-05-21T14:19:38.163Z,28.60
2023-05-21T14:22:05.183Z,28.50
2023-05-21T14:24:32.037Z,28.50
2023-05-21T14:26:58.856Z,28.40
2023-05-21T14:29:25.769Z,28.20
2023-05-21T14:31:52.730Z,28.30
2023-05-21T14:34:19.639Z,28.10
2023-05-21T14:36:46.574Z,27.90
2023-05-21T14:39:13.459Z,27.80
2023-05-21T14:41:40.489Z,27.90
2023-05-21T14:44:07.325Z,27.80
2023-05-21T14:46:34.476Z,27.80
2023-05-21T14:49:01.422Z,27.70
2023-05-21T14:51:28.302Z,27.50
2023-05-21T14:53:57.339Z,27.60
2023-05-21T14:56:27.320Z,27.40
2023-05-21T14:58:54.734Z,27.40
2023-05-21T15:01:21.775Z,27.60
2023-05-21T15:03:48.765Z,27.50
2023-05-21T15:06:16.051Z,27.40
2023-05-21T15:08:42.921Z,27.30
2023-05-21T15:11:10.180Z,27.30
2023-05-21T15:13:37.907Z,27.10
2023-05-21T15:16:05.018Z,26.90
2023-05-21T15:18:31.960Z,26.90
2023-05-21T15:20:59.289Z,26.80
2023-05-21T15:23:26.190Z,26.70
2023-05-21T15:25:53.255Z,26.40
2023-05-21T15:28:20.286Z,26.40
2023-05-21T15:30:47.172Z,26.20
2023-05-21T15:33:14.167Z,26.20
2023-05-21T15:35:41.735Z,26.10
2023-05-21T15:38:08.986Z,26.10
2023-05-21T15:40:35.955Z,26.10
2023-05-21T15:43:02.839Z,25.90
2023-05-21T15:45:29.671Z,26.00
2023-05-21T15:47:56.556Z,25.90
2023-05-21T15:50:23.638Z,25.90
2023-05-21T15:52:52.362Z,25.80
2023-05-21T15:55:20.564Z,25.80
2023-05-21T15:57:47.580Z,25.70
2023-05-21T16:00:14.857Z,25.70
2023-05-21T16:02:42.206Z,25.60
2023-05-21T16:05:09.657Z,25.60
2023-05-21T16:07:38.113Z,25.60
2023-05-21T16:10:06.088Z,25.50
2023-05-21T16:12:32.971Z,25.40
2023-05-21T16:14:59.849Z,25.40
2023-05-21T16:17:26.759Z,25.40
2023-05-21T16:19:53.726Z,25.40
2023-05-21T16:22:20.845Z,25.30
2023-05-21T16:24:48.025Z,25.30
2023-05-21T16:27:14.958Z,25.20
2023-05-21T16:29:42.094Z,25.10
2023-05-21T16:32:10.686Z,25.20
2023-05-21T16:34:37.559Z,25.20
2023-05-21T16:37:04.629Z,25.10
2023-05-21T16:39:31.606Z,25.10
2023-05-21T16:41:59.871Z,25.00
2023-05-21T16:44:27.441Z,24.90
2023-05-21T16:46:54.425Z,24.90
2023-05-21T16:49:21.266Z,24.80
2023-05-21T16:51:48.098Z,24.70
2023-05-21T16:54:14.954Z,24.70
2023-05-21T16:56:41.785Z,24.70
2023-05-21T16:59:08.617Z,24.60
2023-05-21T17:01:35.597Z,24.50
2023-05-21T17:04:02.782Z,24.50
2023-05-21T17:06:29.918Z,24.50
2023-05-21T17:08:56.807Z,24.50
2023-05-21T17:11:23.725Z,24.40
2023-05-21T17:13:50.560Z,24.30
2023-05-21T17:16:17.526Z,24.30
2023-05-21T17:18:44.552Z,24.30
2023-05-21T17:21:11.782Z,24.20
2023-05-21T17:23:38.745Z,24.10
2023-05-21T17:26:09.598Z,24.10
2023-05-21T17:28:36.725Z,24.00
2023-05-21T17:31:04.157Z,23.90
2023-05-21T17:33:31.472Z,23.80
2023-05-21T17:35:58.526Z,23.70
2023-05-21T17:38:25.386Z,23.60
2023-05-21T17:40:52.451Z,23.50
2023-05-21T17:43:19.411Z,23.50
2023-05-21T17:45:46.519Z,23.40
2023-05-21T17:48:13.542Z,23.30
2023-05-21T17:50:40.677Z,23.20
2023-05-21T17:53:08.087Z,23.10
2023-05-21T17:55:35.147Z,23.00
2023-05-21T17:58:02.571Z,22.90
2023-05-21T18:00:29.644Z,22.80
2023-05-21T18:02:56.701Z,22.70
2023-05-21T18:05:23.673Z,22.70
2023-05-21T18:07:50.786Z,22.60
2023-05-21T18:10:17.775Z,22.40
2023-05-21T18:12:46.471Z,22.30
2023-05-21T18:15:14.985Z,22.20
2023-05-21T18:17:42.015Z,22.10
2023-05-21T18:20:09.509Z,22.00
2023-05-21T18:22:36.818Z,22.00
2023-05-21T18:25:04.796Z,21.90
2023-05-21T18:27:31.847Z,21.80
2023-05-21T18:30:02.370Z,21.70
2023-05-21T18:32:29.574Z,21.60
2023-05-21T18:34:58.067Z,21.50
2023-05-21T18:37:25.961Z,21.40
2023-05-21T18:39:52.932Z,21.30
2023-05-21T18:42:19.802Z,21.20
2023-05-21T18:44:46.673Z,21.10
2023-05-21T18:47:14.009Z,21.10
2023-05-21T18:49:40.914Z,21.00
2023-05-21T18:52:07.983Z,20.90
2023-05-21T18:54:34.862Z,20.90
2023-05-21T18:57:01.736Z,20.80
2023-05-21T18:59:28.975Z,20.70
2023-05-21T19:01:56.014Z,20.60
2023-05-21T19:04:23.102Z,20.50
2023-05-21T19:06:50.043Z,20.40
2023-05-21T19:09:17.087Z,20.30
2023-05-21T19:11:44.190Z,20.20
2023-05-21T19:14:11.166Z,20.10
2023-05-21T19:16:38.326Z,20.00
2023-05-21T19:19:06.150Z,19.90
2023-05-21T19:21:33.205Z,19.90
2023-05-21T19:24:00.224Z,19.80
2023-05-21T19:26:27.257Z,19.80
2023-05-21T19:28:54.993Z,19.70
2023-05-21T19:31:22.782Z,19.70
2023-05-21T19:33:49.996Z,19.70
2023-05-21T19:36:17.038Z,19.60
2023-05-21T19:38:51.037Z,19.60
2023-05-21T19:41:18.652Z,19.60
2023-05-21T19:43:46.055Z,19.60
2023-05-21T19:46:13.898Z,19.50
2023-05-21T19:48:41.849Z,19.40
2023-05-21T19:51:08.750Z,19.30
2023-05-21T19:53:36.315Z,19.30
2023-05-21T19:56:03.250Z,19.30
2023-05-21T19:58:30.515Z,19.20
2023-05-21T20:01:00.598Z,19.10
2023-05-21T20:03:28.801Z,19.10
2023-05-21T20:05:55.984Z,19.00
2023-05-21T20:08:23.005Z,18.90
2023-05-21T20:10:51.966Z,18.90
2023-05-21T20:13:19.699Z,18.80
2023-05-21T20:15:48.055Z,18.80
2023-05-21T20:18:15.634Z,18.80
2023-05-21T20:20:43.210Z,18.70
2023-05-21T20:23:10.253Z,18.70
2023-05-21T20:25:37.160Z,18.60
2023-05-21T20:28:05.413Z,18.60
2023-05-21T20:30:34.701Z,18.60
2023-05-21T20:33:02.964Z,18.60
2023-05-21T20:35:30.564Z,18.60
2023-05-21T20:37:57.531Z,18.60
2023-05-21T20:40:24.649Z,18.50
2023-05-21T20:42:53.574Z,18.40
2023-05-21T20:45:22.031Z,18.40
2023-05-21T20:47:49.923Z,18.30
2023-05-21T20:50:25.843Z,18.30
2023-05-21T20:52:52.856Z,18.20
2023-05-21T20:55:20.889Z,18.20
2023-05-21T20:57:47.831Z,18.10
2023-05-21T21:00:16.134Z,18.00
2023-05-21T21:02:44.022Z,18.00
2023-05-21T21:05:11.656Z,17.90
2023-05-21T21:07:38.853Z,17.90
2023-05-21T21:10:06.256Z,17.90
2023-05-21T21:12:33.147Z,17.80
2023-05-21T21:15:00.033Z,17.70
2023-05-21T21:17:26.962Z,17.70
2023-05-21T21:19:53.819Z,17.60
2023-05-21T21:22:21.079Z,17.60
2023-05-21T21:24:48.348Z,17.50
2023-05-21T21:27:15.424Z,17.40
2023-05-21T21:29:42.284Z,17.30
2023-05-21T21:32:09.145Z,17.10
2023-05-21T21:34:36.012Z,17.00
2023-05-21T21:37:03.020Z,16.90
2023-05-21T21:39:29.851Z,16.90
2023-05-21T21:41:56.730Z,16.80
2023-05-21T21:44:23.547Z,16.70
2023-05-21T21:46:50.453Z,16.60
2023-05-21T21:49:17.632Z,16.60
2023-05-21T21:51:45.012Z,16.60
2023-05-21T21:54:12.385Z,16.50
2023-05-21T21:56:39.280Z,16.50
2023-05-21T21:59:06.135Z,16.50
2023-05-21T22:01:33.257Z,16.40
2023-05-21T22:04:00.196Z,16.30
2023-05-21T22:06:28.639Z,16.20
2023-05-21T22:08:55.576Z,16.10
2023-05-21T22:11:22.782Z,16.10
2023-05-21T22:13:49.665Z,16.00
2023-05-21T22:16:16.594Z,16.00
2023-05-21T22:18:43.776Z,16.00
2023-05-21T22:21:14.274Z,16.00
2023-05-21T22:23:41.551Z,15.90
2023-05-21T22:26:09.500Z,15.90
2023-05-21T22:28:36.427Z,15.80
2023-05-21T22:31:03.517Z,15.80
2023-05-21T22:33:30.732Z,15.70
2023-05-21T22:35:58.136Z,15.80
2023-05-21T22:38:25.752Z,15.70
2023-05-21T22:40:52.721Z,15.70
2023-05-21T22:43:19.790Z,15.60
2023-05-21T22:45:46.636Z,15.50
2023-05-21T22:48:14.454Z,15.50
2023-05-21T22:50:41.475Z,15.50
2023-05-21T22:53:08.601Z,15.40
2023-05-21T22:55:35.526Z,15.40
2023-05-21T22:58:02.439Z,15.40
2023-05-21T23:00:29.303Z,15.30
2023-05-21T23:02:56.360Z,15.20
2023-05-21T23:05:23.374Z,15.20
2023-05-21T23:07:50.535Z,15.10
2023-05-21T23:10:17.521Z,15.00
2023-05-21T23:12:44.408Z,15.00
2023-05-21T23:15:11.611Z,15.00
2023-05-21T23:17:39.099Z,15.00
2023-05-21T23:20:07.436Z,14.90
2023-05-21T23:22:35.433Z,15.00
2023-05-21T23:25:02.793Z,14.90
2023-05-21T23:27:29.670Z,14.80
2023-05-21T23:29:56.666Z,14.80
2023-05-21T23:32:24.061Z,14.70
2023-05-21T23:34:51.041Z,14.60
2023-05-21T23:37:17.987Z,14.50
2023-05-21T23:39:48.322Z,14.60
2023-05-21T23:42:16.369Z,14.60
2023-05-21T23:44:43.360Z,14.60
2023-05-21T23:47:10.266Z,14.50
2023-05-21T23:49:37.233Z,14.30
2023-05-21T23:52:05.832Z,14.20
2023-05-21T23:54:33.031Z,14.10
2023-05-21T23:56:59.856Z,14.00
2023-05-21T23:59:26.828Z,13.90
